sensor_id;sensor_type;location;lat;lon;timestamp;P1;durP1;ratioP1;P2;durP2;ratioP2
5871;SDS011;2962;51.312;7.378;2023-07-13T00:01:35;5.70;;;2.00;;
5871;SDS011;2962;51.312;7.378;2023-07-13T00:04:00;1.90;;;1.57;;
5871;SDS011;2962;51.312;7.378;2023-07-13T00:06:26;2.23;;;2.03;;
5871;SDS011;2962;51.312;7.378;2023-07-13T00:08:55;1.10;;;1.00;;
5871;SDS011;2962;51.312;7.378;2023-07-13T00:11:20;0.67;;;0.67;;
5871;SDS011;2962;51.312;7.378;2023-07-13T00:13:45;2.97;;;1.27;;
5871;SDS011;2962;51.312;7.378;2023-07-13T00:16:11;1.50;;;1.37;;
5871;SDS011;2962;51.312;7.378;2023-07-13T00:18:38;8.23;;;1.30;;
5871;SDS011;2962;51.312;7.378;2023-07-13T00:21:04;2.50;;;1.20;;
5871;SDS011;2962;51.312;7.378;2023-07-13T00:23:36;3.23;;;1.00;;
5871;SDS011;2962;51.312;7.378;2023-07-13T00:26:03;4.40;;;1.33;;
5871;SDS011;2962;51.312;7.378;2023-07-13T00:28:29;5.50;;;1.20;;
5871;SDS011;2962;51.312;7.378;2023-07-13T00:30:55;4.80;;;2.13;;
5871;SDS011;2962;51.312;7.378;2023-07-13T00:33:20;2.27;;;2.07;;
5871;SDS011;2962;51.312;7.378;2023-07-13T00:35:47;5.00;;;1.93;;
5871;SDS011;2962;51.312;7.378;2023-07-13T00:38:13;2.57;;;2.03;;
5871;SDS011;2962;51.312;7.378;2023-07-13T00:40:38;2.83;;;1.30;;
5871;SDS011;2962;51.312;7.378;2023-07-13T00:43:08;2.23;;;1.47;;
5871;SDS011;2962;51.312;7.378;2023-07-13T00:48:22;2.73;;;1.47;;
5871;SDS011;2962;51.312;7.378;2023-07-13T00:50:53;4.33;;;1.40;;
5871;SDS011;2962;51.312;7.378;2023-07-13T00:53:22;7.20;;;1.67;;
5871;SDS011;2962;51.312;7.378;2023-07-13T00:55:49;4.73;;;1.77;;
5871;SDS011;2962;51.312;7.378;2023-07-13T00:58:16;1.80;;;1.13;;
5871;SDS011;2962;51.312;7.378;2023-07-13T01:00:41;1.43;;;1.33;;
5871;SDS011;2962;51.312;7.378;2023-07-13T01:03:07;6.00;;;1.90;;
5871;SDS011;2962;51.312;7.378;2023-07-13T01:05:33;2.20;;;1.13;;
5871;SDS011;2962;51.312;7.378;2023-07-13T01:08:00;2.77;;;1.20;;
5871;SDS011;2962;51.312;7.378;2023-07-13T01:10:27;3.57;;;2.03;;
5871;SDS011;2962;51.312;7.378;2023-07-13T01:12:53;2.60;;;1.67;;
5871;SDS011;2962;51.312;7.378;2023-07-13T01:18:25;5.80;;;1.70;;
5871;SDS011;2962;51.312;7.378;2023-07-13T01:20:55;2.80;;;1.43;;
5871;SDS011;2962;51.312;7.378;2023-07-13T01:23:25;3.90;;;1.70;;
5871;SDS011;2962;51.312;7.378;2023-07-13T01:25:52;3.60;;;1.43;;
5871;SDS011;2962;51.312;7.378;2023-07-13T01:28:18;2.30;;;0.90;;
5871;SDS011;2962;51.312;7.378;2023-07-13T01:30:44;2.37;;;1.17;;
5871;SDS011;2962;51.312;7.378;2023-07-13T01:33:12;4.00;;;1.60;;
5871;SDS011;2962;51.312;7.378;2023-07-13T01:35:38;2.07;;;1.43;;
5871;SDS011;2962;51.312;7.378;2023-07-13T01:38:04;5.23;;;1.30;;
5871;SDS011;2962;51.312;7.378;2023-07-13T01:40:30;4.53;;;1.50;;
5871;SDS011;2962;51.312;7.378;2023-07-13T01:42:57;2.87;;;1.47;;
5871;SDS011;2962;51.312;7.378;2023-07-13T01:45:23;3.20;;;1.07;;
5871;SDS011;2962;51.312;7.378;2023-07-13T01:47:49;5.77;;;1.17;;
5871;SDS011;2962;51.312;7.378;2023-07-13T01:50:14;3.27;;;1.53;;
5871;SDS011;2962;51.312;7.378;2023-07-13T01:52:39;3.60;;;1.47;;
5871;SDS011;2962;51.312;7.378;2023-07-13T01:55:05;4.63;;;1.50;;
5871;SDS011;2962;51.312;7.378;2023-07-13T01:57:30;2.60;;;1.30;;
5871;SDS011;2962;51.312;7.378;2023-07-13T01:59:56;5.10;;;1.07;;
5871;SDS011;2962;51.312;7.378;2023-07-13T02:02:21;7.00;;;1.90;;
5871;SDS011;2962;51.312;7.378;2023-07-13T02:04:47;3.70;;;1.97;;
5871;SDS011;2962;51.312;7.378;2023-07-13T02:07:12;5.00;;;1.20;;
5871;SDS011;2962;51.312;7.378;2023-07-13T02:09:37;4.00;;;1.57;;
5871;SDS011;2962;51.312;7.378;2023-07-13T02:12:03;6.00;;;1.37;;
5871;SDS011;2962;51.312;7.378;2023-07-13T02:14:28;1.40;;;1.20;;
5871;SDS011;2962;51.312;7.378;2023-07-13T02:16:53;1.60;;;1.50;;
5871;SDS011;2962;51.312;7.378;2023-07-13T02:19:19;3.67;;;1.07;;
5871;SDS011;2962;51.312;7.378;2023-07-13T02:21:44;1.30;;;1.20;;
5871;SDS011;2962;51.312;7.378;2023-07-13T02:24:09;6.20;;;1.30;;
5871;SDS011;2962;51.312;7.378;2023-07-13T02:26:34;5.90;;;1.20;;
5871;SDS011;2962;51.312;7.378;2023-07-13T02:29:00;3.97;;;1.50;;
5871;SDS011;2962;51.312;7.378;2023-07-13T02:31:26;3.23;;;1.43;;
5871;SDS011;2962;51.312;7.378;2023-07-13T02:33:51;3.37;;;1.73;;
5871;SDS011;2962;51.312;7.378;2023-07-13T02:36:16;9.57;;;1.43;;
5871;SDS011;2962;51.312;7.378;2023-07-13T02:38:43;4.83;;;1.80;;
5871;SDS011;2962;51.312;7.378;2023-07-13T02:41:09;2.27;;;1.47;;
5871;SDS011;2962;51.312;7.378;2023-07-13T02:43:34;1.80;;;1.73;;
5871;SDS011;2962;51.312;7.378;2023-07-13T02:46:01;2.20;;;1.77;;
5871;SDS011;2962;51.312;7.378;2023-07-13T02:48:32;2.57;;;1.50;;
5871;SDS011;2962;51.312;7.378;2023-07-13T02:51:00;4.50;;;1.40;;
5871;SDS011;2962;51.312;7.378;2023-07-13T02:53:26;2.03;;;1.67;;
5871;SDS011;2962;51.312;7.378;2023-07-13T02:55:51;4.33;;;1.67;;
5871;SDS011;2962;51.312;7.378;2023-07-13T02:58:17;2.63;;;1.40;;
5871;SDS011;2962;51.312;7.378;2023-07-13T03:00:43;5.00;;;2.40;;
5871;SDS011;2962;51.312;7.378;2023-07-13T03:03:11;4.43;;;1.93;;
5871;SDS011;2962;51.312;7.378;2023-07-13T03:05:38;6.80;;;2.20;;
5871;SDS011;2962;51.312;7.378;2023-07-13T03:08:05;2.00;;;1.90;;
5871;SDS011;2962;51.312;7.378;2023-07-13T03:10:31;5.00;;;2.00;;
5871;SDS011;2962;51.312;7.378;2023-07-13T03:12:57;3.17;;;1.87;;
5871;SDS011;2962;51.312;7.378;2023-07-13T03:15:22;1.40;;;1.30;;
5871;SDS011;2962;51.312;7.378;2023-07-13T03:17:48;2.13;;;2.03;;
5871;SDS011;2962;51.312;7.378;2023-07-13T03:20:13;3.97;;;2.17;;
5871;SDS011;2962;51.312;7.378;2023-07-13T03:22:38;3.47;;;1.70;;
5871;SDS011;2962;51.312;7.378;2023-07-13T03:25:04;2.83;;;1.97;;
5871;SDS011;2962;51.312;7.378;2023-07-13T03:27:30;2.97;;;1.53;;
5871;SDS011;2962;51.312;7.378;2023-07-13T03:29:55;9.93;;;1.90;;
5871;SDS011;2962;51.312;7.378;2023-07-13T03:32:20;2.60;;;1.83;;
5871;SDS011;2962;51.312;7.378;2023-07-13T03:34:45;3.33;;;1.47;;
5871;SDS011;2962;51.312;7.378;2023-07-13T03:37:11;2.40;;;2.20;;
5871;SDS011;2962;51.312;7.378;2023-07-13T03:39:36;3.43;;;2.10;;
5871;SDS011;2962;51.312;7.378;2023-07-13T03:42:01;5.17;;;1.90;;
5871;SDS011;2962;51.312;7.378;2023-07-13T03:44:26;6.67;;;2.37;;
5871;SDS011;2962;51.312;7.378;2023-07-13T03:46:52;1.93;;;1.73;;
5871;SDS011;2962;51.312;7.378;2023-07-13T03:49:17;5.10;;;1.93;;
5871;SDS011;2962;51.312;7.378;2023-07-13T03:51:42;4.57;;;1.70;;
5871;SDS011;2962;51.312;7.378;2023-07-13T03:54:07;3.33;;;2.07;;
5871;SDS011;2962;51.312;7.378;2023-07-13T03:56:33;2.83;;;1.97;;
5871;SDS011;2962;51.312;7.378;2023-07-13T03:58:58;3.60;;;1.77;;
5871;SDS011;2962;51.312;7.378;2023-07-13T04:01:24;2.83;;;1.73;;
5871;SDS011;2962;51.312;7.378;2023-07-13T04:03:50;5.73;;;1.50;;
5871;SDS011;2962;51.312;7.378;2023-07-13T04:06:17;6.57;;;1.50;;
5871;SDS011;2962;51.312;7.378;2023-07-13T04:08:46;1.47;;;1.47;;
5871;SDS011;2962;51.312;7.378;2023-07-13T04:11:12;2.30;;;1.87;;
5871;SDS011;2962;51.312;7.378;2023-07-13T04:13:37;2.10;;;1.43;;
5871;SDS011;2962;51.312;7.378;2023-07-13T04:16:03;3.70;;;1.60;;
5871;SDS011;2962;51.312;7.378;2023-07-13T04:18:28;9.43;;;2.30;;
5871;SDS011;2962;51.312;7.378;2023-07-13T04:20:54;3.97;;;2.00;;
5871;SDS011;2962;51.312;7.378;2023-07-13T04:23:19;7.50;;;2.17;;
5871;SDS011;2962;51.312;7.378;2023-07-13T04:25:48;10.37;;;2.30;;
5871;SDS011;2962;51.312;7.378;2023-07-13T04:28:17;3.37;;;1.80;;
5871;SDS011;2962;51.312;7.378;2023-07-13T04:30:44;1.80;;;1.70;;
5871;SDS011;2962;51.312;7.378;2023-07-13T04:33:10;11.07;;;2.87;;
5871;SDS011;2962;51.312;7.378;2023-07-13T04:35:35;7.70;;;2.00;;
5871;SDS011;2962;51.312;7.378;2023-07-13T04:38:01;3.57;;;1.40;;
5871;SDS011;2962;51.312;7.378;2023-07-13T04:40:27;2.73;;;1.73;;
5871;SDS011;2962;51.312;7.378;2023-07-13T04:42:53;3.33;;;1.57;;
5871;SDS011;2962;51.312;7.378;2023-07-13T04:45:19;1.20;;;1.20;;
5871;SDS011;2962;51.312;7.378;2023-07-13T04:47:44;4.37;;;1.70;;
5871;SDS011;2962;51.312;7.378;2023-07-13T04:50:12;8.27;;;2.40;;
5871;SDS011;2962;51.312;7.378;2023-07-13T04:52:43;5.10;;;1.70;;
5871;SDS011;2962;51.312;7.378;2023-07-13T04:55:08;10.37;;;2.03;;
5871;SDS011;2962;51.312;7.378;2023-07-13T04:57:34;3.63;;;1.50;;
5871;SDS011;2962;51.312;7.378;2023-07-13T04:59:59;3.10;;;1.70;;
5871;SDS011;2962;51.312;7.378;2023-07-13T05:02:26;2.40;;;1.70;;
5871;SDS011;2962;51.312;7.378;2023-07-13T05:04:53;8.23;;;1.50;;
5871;SDS011;2962;51.312;7.378;2023-07-13T05:07:18;2.87;;;1.37;;
5871;SDS011;2962;51.312;7.378;2023-07-13T05:09:43;6.27;;;1.90;;
5871;SDS011;2962;51.312;7.378;2023-07-13T05:12:09;3.90;;;1.57;;
5871;SDS011;2962;51.312;7.378;2023-07-13T05:14:35;9.43;;;1.97;;
5871;SDS011;2962;51.312;7.378;2023-07-13T05:17:00;7.50;;;1.90;;
5871;SDS011;2962;51.312;7.378;2023-07-13T05:19:26;1.60;;;1.50;;
5871;SDS011;2962;51.312;7.378;2023-07-13T05:21:51;5.80;;;2.03;;
5871;SDS011;2962;51.312;7.378;2023-07-13T05:24:16;3.30;;;1.53;;
5871;SDS011;2962;51.312;7.378;2023-07-13T05:26:41;8.17;;;1.90;;
5871;SDS011;2962;51.312;7.378;2023-07-13T05:29:07;13.33;;;2.00;;
5871;SDS011;2962;51.312;7.378;2023-07-13T05:31:32;12.93;;;2.27;;
5871;SDS011;2962;51.312;7.378;2023-07-13T05:33:57;8.00;;;2.03;;
5871;SDS011;2962;51.312;7.378;2023-07-13T05:36:22;3.03;;;1.80;;
5871;SDS011;2962;51.312;7.378;2023-07-13T05:38:48;2.37;;;2.10;;
5871;SDS011;2962;51.312;7.378;2023-07-13T05:41:13;2.03;;;1.40;;
5871;SDS011;2962;51.312;7.378;2023-07-13T05:43:39;9.40;;;1.60;;
5871;SDS011;2962;51.312;7.378;2023-07-13T05:46:04;4.37;;;1.43;;
5871;SDS011;2962;51.312;7.378;2023-07-13T05:48:29;10.83;;;2.50;;
5871;SDS011;2962;51.312;7.378;2023-07-13T05:50:54;5.13;;;2.30;;
5871;SDS011;2962;51.312;7.378;2023-07-13T05:53:20;7.60;;;2.33;;
5871;SDS011;2962;51.312;7.378;2023-07-13T05:55:46;8.10;;;1.90;;
5871;SDS011;2962;51.312;7.378;2023-07-13T05:58:12;2.43;;;1.97;;
5871;SDS011;2962;51.312;7.378;2023-07-13T06:00:38;7.60;;;1.90;;
5871;SDS011;2962;51.312;7.378;2023-07-13T06:03:03;6.47;;;1.90;;
5871;SDS011;2962;51.312;7.378;2023-07-13T06:05:28;7.77;;;2.90;;
5871;SDS011;2962;51.312;7.378;2023-07-13T06:07:54;6.23;;;2.23;;
5871;SDS011;2962;51.312;7.378;2023-07-13T06:10:19;3.57;;;2.27;;
5871;SDS011;2962;51.312;7.378;2023-07-13T06:12:45;2.83;;;1.70;;
5871;SDS011;2962;51.312;7.378;2023-07-13T06:15:10;3.33;;;1.87;;
5871;SDS011;2962;51.312;7.378;2023-07-13T06:17:36;7.03;;;2.20;;
5871;SDS011;2962;51.312;7.378;2023-07-13T06:20:01;4.77;;;2.40;;
5871;SDS011;2962;51.312;7.378;2023-07-13T06:22:26;4.57;;;2.23;;
5871;SDS011;2962;51.312;7.378;2023-07-13T06:24:52;8.03;;;2.40;;
5871;SDS011;2962;51.312;7.378;2023-07-13T06:27:17;7.10;;;2.40;;
5871;SDS011;2962;51.312;7.378;2023-07-13T06:29:42;7.87;;;2.83;;
5871;SDS011;2962;51.312;7.378;2023-07-13T06:32:10;7.00;;;2.10;;
5871;SDS011;2962;51.312;7.378;2023-07-13T06:34:35;9.17;;;3.07;;
5871;SDS011;2962;51.312;7.378;2023-07-13T06:37:00;8.23;;;2.37;;
5871;SDS011;2962;51.312;7.378;2023-07-13T06:39:26;6.10;;;2.40;;
5871;SDS011;2962;51.312;7.378;2023-07-13T06:41:51;6.90;;;2.50;;
5871;SDS011;2962;51.312;7.378;2023-07-13T06:44:16;6.53;;;2.33;;
5871;SDS011;2962;51.312;7.378;2023-07-13T06:46:41;5.67;;;2.43;;
5871;SDS011;2962;51.312;7.378;2023-07-13T06:49:08;6.80;;;2.57;;
5871;SDS011;2962;51.312;7.378;2023-07-13T06:51:34;3.70;;;2.50;;
5871;SDS011;2962;51.312;7.378;2023-07-13T06:53:59;4.80;;;2.33;;
5871;SDS011;2962;51.312;7.378;2023-07-13T06:56:24;6.13;;;2.43;;
5871;SDS011;2962;51.312;7.378;2023-07-13T06:58:50;6.40;;;2.37;;
5871;SDS011;2962;51.312;7.378;2023-07-13T07:01:15;8.73;;;2.60;;
5871;SDS011;2962;51.312;7.378;2023-07-13T07:03:40;5.90;;;2.23;;
5871;SDS011;2962;51.312;7.378;2023-07-13T07:06:15;3.13;;;1.70;;
5871;SDS011;2962;51.312;7.378;2023-07-13T07:08:44;4.80;;;1.87;;
5871;SDS011;2962;51.312;7.378;2023-07-13T07:11:14;7.57;;;2.20;;
5871;SDS011;2962;51.312;7.378;2023-07-13T07:13:43;7.20;;;2.40;;
5871;SDS011;2962;51.312;7.378;2023-07-13T07:16:08;4.43;;;1.70;;
5871;SDS011;2962;51.312;7.378;2023-07-13T07:18:34;2.57;;;1.90;;
5871;SDS011;2962;51.312;7.378;2023-07-13T07:20:59;4.13;;;2.30;;
5871;SDS011;2962;51.312;7.378;2023-07-13T07:23:24;2.77;;;1.97;;
5871;SDS011;2962;51.312;7.378;2023-07-13T07:25:50;13.13;;;2.27;;
5871;SDS011;2962;51.312;7.378;2023-07-13T07:28:16;3.90;;;1.70;;
5871;SDS011;2962;51.312;7.378;2023-07-13T07:30:43;3.50;;;2.30;;
5871;SDS011;2962;51.312;7.378;2023-07-13T07:33:12;9.93;;;2.43;;
5871;SDS011;2962;51.312;7.378;2023-07-13T07:35:38;4.57;;;2.37;;
5871;SDS011;2962;51.312;7.378;2023-07-13T07:38:03;6.77;;;2.10;;
5871;SDS011;2962;51.312;7.378;2023-07-13T07:40:29;6.07;;;2.47;;
5871;SDS011;2962;51.312;7.378;2023-07-13T07:42:54;4.57;;;2.50;;
5871;SDS011;2962;51.312;7.378;2023-07-13T07:45:20;6.13;;;1.83;;
5871;SDS011;2962;51.312;7.378;2023-07-13T07:47:45;4.77;;;2.07;;
5871;SDS011;2962;51.312;7.378;2023-07-13T07:50:11;4.03;;;2.20;;
5871;SDS011;2962;51.312;7.378;2023-07-13T07:52:36;8.60;;;1.90;;
5871;SDS011;2962;51.312;7.378;2023-07-13T07:55:03;6.77;;;2.33;;
5871;SDS011;2962;51.312;7.378;2023-07-13T07:57:29;6.50;;;2.63;;
5871;SDS011;2962;51.312;7.378;2023-07-13T07:59:54;4.83;;;2.33;;
5871;SDS011;2962;51.312;7.378;2023-07-13T08:02:20;2.37;;;2.07;;
5871;SDS011;2962;51.312;7.378;2023-07-13T08:04:45;6.03;;;2.50;;
5871;SDS011;2962;51.312;7.378;2023-07-13T08:07:10;9.00;;;2.90;;
5871;SDS011;2962;51.312;7.378;2023-07-13T08:09:35;8.10;;;3.10;;
5871;SDS011;2962;51.312;7.378;2023-07-13T08:12:01;10.17;;;2.80;;
5871;SDS011;2962;51.312;7.378;2023-07-13T08:14:26;4.50;;;2.40;;
5871;SDS011;2962;51.312;7.378;2023-07-13T08:16:51;7.60;;;3.13;;
5871;SDS011;2962;51.312;7.378;2023-07-13T08:19:17;4.47;;;2.73;;
5871;SDS011;2962;51.312;7.378;2023-07-13T08:21:42;3.43;;;2.73;;
5871;SDS011;2962;51.312;7.378;2023-07-13T08:24:08;3.07;;;2.10;;
5871;SDS011;2962;51.312;7.378;2023-07-13T08:26:34;3.10;;;2.30;;
5871;SDS011;2962;51.312;7.378;2023-07-13T08:28:59;4.10;;;1.90;;
5871;SDS011;2962;51.312;7.378;2023-07-13T08:31:24;9.93;;;1.83;;
5871;SDS011;2962;51.312;7.378;2023-07-13T08:33:50;7.23;;;2.13;;
5871;SDS011;2962;51.312;7.378;2023-07-13T08:36:15;5.30;;;2.10;;
5871;SDS011;2962;51.312;7.378;2023-07-13T08:38:40;11.60;;;2.43;;
5871;SDS011;2962;51.312;7.378;2023-07-13T08:41:10;2.63;;;2.40;;
5871;SDS011;2962;51.312;7.378;2023-07-13T08:43:41;5.03;;;2.47;;
5871;SDS011;2962;51.312;7.378;2023-07-13T08:46:18;5.03;;;2.73;;
5871;SDS011;2962;51.312;7.378;2023-07-13T08:48:49;3.80;;;2.40;;
5871;SDS011;2962;51.312;7.378;2023-07-13T08:54:49;5.97;;;2.83;;
5871;SDS011;2962;51.312;7.378;2023-07-13T08:57:02;5.33;;;3.27;;
5871;SDS011;2962;51.312;7.378;2023-07-13T08:59:37;6.57;;;2.63;;
5871;SDS011;2962;51.312;7.378;2023-07-13T09:10:37;4.87;;;3.40;;
5871;SDS011;2962;51.312;7.378;2023-07-13T09:15:57;11.53;;;3.13;;
5871;SDS011;2962;51.312;7.378;2023-07-13T09:18:35;3.10;;;2.90;;
5871;SDS011;2962;51.312;7.378;2023-07-13T09:21:04;3.80;;;2.60;;
5871;SDS011;2962;51.312;7.378;2023-07-13T09:23:37;7.27;;;2.63;;
5871;SDS011;2962;51.312;7.378;2023-07-13T09:26:04;5.30;;;2.67;;
5871;SDS011;2962;51.312;7.378;2023-07-13T09:28:38;4.87;;;2.80;;
5871;SDS011;2962;51.312;7.378;2023-07-13T09:31:09;2.47;;;2.23;;
5871;SDS011;2962;51.312;7.378;2023-07-13T09:33:39;7.13;;;2.13;;
5871;SDS011;2962;51.312;7.378;2023-07-13T09:36:38;4.10;;;2.13;;
5871;SDS011;2962;51.312;7.378;2023-07-13T09:39:00;7.63;;;2.27;;
5871;SDS011;2962;51.312;7.378;2023-07-13T09:41:39;2.07;;;1.93;;
5871;SDS011;2962;51.312;7.378;2023-07-13T09:44:16;1.60;;;1.50;;
5871;SDS011;2962;51.312;7.378;2023-07-13T09:46:54;5.67;;;1.93;;
5871;SDS011;2962;51.312;7.378;2023-07-13T09:49:24;2.13;;;1.67;;
5871;SDS011;2962;51.312;7.378;2023-07-13T09:51:50;2.73;;;2.00;;
5871;SDS011;2962;51.312;7.378;2023-07-13T09:54:24;4.47;;;1.70;;
5871;SDS011;2962;51.312;7.378;2023-07-13T09:56:56;3.93;;;2.20;;
5871;SDS011;2962;51.312;7.378;2023-07-13T09:59:26;9.00;;;1.97;;
5871;SDS011;2962;51.312;7.378;2023-07-13T10:01:54;5.90;;;1.63;;
5871;SDS011;2962;51.312;7.378;2023-07-13T10:04:22;5.83;;;2.00;;
5871;SDS011;2962;51.312;7.378;2023-07-13T10:06:52;3.87;;;1.87;;
5871;SDS011;2962;51.312;7.378;2023-07-13T10:09:30;7.57;;;2.03;;
5871;SDS011;2962;51.312;7.378;2023-07-13T10:11:57;5.10;;;1.90;;
5871;SDS011;2962;51.312;7.378;2023-07-13T10:14:22;2.57;;;1.90;;
5871;SDS011;2962;51.312;7.378;2023-07-13T10:16:50;5.30;;;2.30;;
5871;SDS011;2962;51.312;7.378;2023-07-13T10:19:23;4.83;;;1.70;;
5871;SDS011;2962;51.312;7.378;2023-07-13T10:22:01;3.60;;;1.37;;
5871;SDS011;2962;51.312;7.378;2023-07-13T10:24:36;4.43;;;2.17;;
5871;SDS011;2962;51.312;7.378;2023-07-13T10:29:48;2.53;;;1.20;;
5871;SDS011;2962;51.312;7.378;2023-07-13T10:32:17;4.03;;;1.87;;
5871;SDS011;2962;51.312;7.378;2023-07-13T10:34:47;2.57;;;1.40;;
5871;SDS011;2962;51.312;7.378;2023-07-13T10:37:22;2.20;;;2.00;;
5871;SDS011;2962;51.312;7.378;2023-07-13T10:39:50;1.70;;;1.20;;
5871;SDS011;2962;51.312;7.378;2023-07-13T10:42:24;5.57;;;1.97;;
5871;SDS011;2962;51.312;7.378;2023-07-13T10:44:54;2.40;;;1.57;;
5871;SDS011;2962;51.312;7.378;2023-07-13T10:47:19;5.33;;;2.07;;
5871;SDS011;2962;51.312;7.378;2023-07-13T10:49:53;3.03;;;1.87;;
5871;SDS011;2962;51.312;7.378;2023-07-13T10:52:41;5.30;;;1.60;;
5871;SDS011;2962;51.312;7.378;2023-07-13T10:55:30;7.90;;;1.70;;
5871;SDS011;2962;51.312;7.378;2023-07-13T10:58:02;3.10;;;1.90;;
5871;SDS011;2962;51.312;7.378;2023-07-13T11:00:36;4.33;;;1.80;;
5871;SDS011;2962;51.312;7.378;2023-07-13T11:03:13;2.23;;;1.67;;
5871;SDS011;2962;51.312;7.378;2023-07-13T11:05:40;2.33;;;1.63;;
5871;SDS011;2962;51.312;7.378;2023-07-13T11:10:58;3.40;;;1.90;;
5871;SDS011;2962;51.312;7.378;2023-07-13T11:16:34;3.17;;;1.80;;
5871;SDS011;2962;51.312;7.378;2023-07-13T11:21:26;4.90;;;1.50;;
5871;SDS011;2962;51.312;7.378;2023-07-13T11:24:03;3.60;;;1.53;;
5871;SDS011;2962;51.312;7.378;2023-07-13T11:26:42;2.00;;;1.37;;
5871;SDS011;2962;51.312;7.378;2023-07-13T11:32:24;4.83;;;2.20;;
5871;SDS011;2962;51.312;7.378;2023-07-13T11:34:54;4.00;;;1.57;;
5871;SDS011;2962;51.312;7.378;2023-07-13T11:37:20;2.30;;;1.40;;
5871;SDS011;2962;51.312;7.378;2023-07-13T11:39:48;3.13;;;1.73;;
5871;SDS011;2962;51.312;7.378;2023-07-13T11:42:17;7.83;;;1.70;;
5871;SDS011;2962;51.312;7.378;2023-07-13T11:44:45;3.57;;;1.70;;
5871;SDS011;2962;51.312;7.378;2023-07-13T11:47:17;3.47;;;1.07;;
5871;SDS011;2962;51.312;7.378;2023-07-13T11:49:52;2.10;;;1.50;;
5871;SDS011;2962;51.312;7.378;2023-07-13T11:52:22;5.00;;;1.90;;
5871;SDS011;2962;51.312;7.378;2023-07-13T11:54:53;4.37;;;1.40;;
5871;SDS011;2962;51.312;7.378;2023-07-13T11:57:23;3.93;;;1.53;;
5871;SDS011;2962;51.312;7.378;2023-07-13T11:59:53;2.43;;;1.80;;
5871;SDS011;2962;51.312;7.378;2023-07-13T12:02:28;2.73;;;1.20;;
5871;SDS011;2962;51.312;7.378;2023-07-13T12:04:56;5.30;;;1.37;;
5871;SDS011;2962;51.312;7.378;2023-07-13T12:07:22;1.90;;;1.40;;
5871;SDS011;2962;51.312;7.378;2023-07-13T12:09:48;1.57;;;1.37;;
5871;SDS011;2962;51.312;7.378;2023-07-13T12:12:27;2.73;;;1.70;;
5871;SDS011;2962;51.312;7.378;2023-07-13T12:14:54;2.50;;;1.90;;
5871;SDS011;2962;51.312;7.378;2023-07-13T12:17:21;1.60;;;1.50;;
5871;SDS011;2962;51.312;7.378;2023-07-13T12:19:48;7.10;;;1.73;;
5871;SDS011;2962;51.312;7.378;2023-07-13T12:22:16;3.93;;;1.60;;
5871;SDS011;2962;51.312;7.378;2023-07-13T12:24:43;5.53;;;1.53;;
5871;SDS011;2962;51.312;7.378;2023-07-13T12:27:20;2.97;;;1.60;;
5871;SDS011;2962;51.312;7.378;2023-07-13T12:29:52;1.43;;;1.17;;
5871;SDS011;2962;51.312;7.378;2023-07-13T12:32:23;4.53;;;2.00;;
5871;SDS011;2962;51.312;7.378;2023-07-13T12:34:51;1.70;;;1.47;;
5871;SDS011;2962;51.312;7.378;2023-07-13T12:37:21;2.67;;;1.43;;
5871;SDS011;2962;51.312;7.378;2023-07-13T12:39:47;2.80;;;1.50;;
5871;SDS011;2962;51.312;7.378;2023-07-13T12:42:21;4.53;;;2.10;;
5871;SDS011;2962;51.312;7.378;2023-07-13T12:44:52;2.20;;;1.27;;
5871;SDS011;2962;51.312;7.378;2023-07-13T12:47:21;5.87;;;1.63;;
5871;SDS011;2962;51.312;7.378;2023-07-13T12:49:48;3.80;;;1.60;;
5871;SDS011;2962;51.312;7.378;2023-07-13T12:52:36;3.30;;;1.80;;
5871;SDS011;2962;51.312;7.378;2023-07-13T12:55:10;2.93;;;1.50;;
5871;SDS011;2962;51.312;7.378;2023-07-13T12:57:47;1.30;;;1.30;;
5871;SDS011;2962;51.312;7.378;2023-07-13T13:03:11;2.07;;;1.30;;
5871;SDS011;2962;51.312;7.378;2023-07-13T13:08:24;1.73;;;1.60;;
5871;SDS011;2962;51.312;7.378;2023-07-13T13:10:50;3.67;;;1.90;;
5871;SDS011;2962;51.312;7.378;2023-07-13T13:13:15;1.40;;;1.30;;
5871;SDS011;2962;51.312;7.378;2023-07-13T13:15:40;5.27;;;1.73;;
5871;SDS011;2962;51.312;7.378;2023-07-13T13:18:24;6.43;;;1.67;;
5871;SDS011;2962;51.312;7.378;2023-07-13T13:20:50;1.73;;;1.63;;
5871;SDS011;2962;51.312;7.378;2023-07-13T13:23:17;1.40;;;1.23;;
5871;SDS011;2962;51.312;7.378;2023-07-13T13:25:44;1.87;;;1.77;;
5871;SDS011;2962;51.312;7.378;2023-07-13T13:28:17;3.30;;;1.60;;
5871;SDS011;2962;51.312;7.378;2023-07-13T13:30:45;4.13;;;1.90;;
5871;SDS011;2962;51.312;7.378;2023-07-13T13:33:13;6.67;;;2.50;;
5871;SDS011;2962;51.312;7.378;2023-07-13T13:35:40;3.60;;;1.67;;
5871;SDS011;2962;51.312;7.378;2023-07-13T13:38:20;4.40;;;1.60;;
5871;SDS011;2962;51.312;7.378;2023-07-13T13:40:50;4.83;;;1.70;;
5871;SDS011;2962;51.312;7.378;2023-07-13T13:43:16;2.03;;;1.40;;
5871;SDS011;2962;51.312;7.378;2023-07-13T13:45:52;2.40;;;1.20;;
5871;SDS011;2962;51.312;7.378;2023-07-13T13:48:25;3.10;;;1.57;;
5871;SDS011;2962;51.312;7.378;2023-07-13T13:50:56;3.03;;;1.40;;
5871;SDS011;2962;51.312;7.378;2023-07-13T13:53:22;1.37;;;1.30;;
5871;SDS011;2962;51.312;7.378;2023-07-13T13:55:51;12.23;;;1.93;;
5871;SDS011;2962;51.312;7.378;2023-07-13T13:58:17;1.73;;;1.23;;
5871;SDS011;2962;51.312;7.378;2023-07-13T14:00:46;3.20;;;2.27;;
5871;SDS011;2962;51.312;7.378;2023-07-13T14:03:16;4.37;;;1.47;;
5871;SDS011;2962;51.312;7.378;2023-07-13T14:05:43;1.80;;;1.70;;
5871;SDS011;2962;51.312;7.378;2023-07-13T14:08:12;1.67;;;1.50;;
5871;SDS011;2962;51.312;7.378;2023-07-13T14:10:39;3.80;;;2.30;;
5871;SDS011;2962;51.312;7.378;2023-07-13T14:13:05;4.90;;;1.50;;
5871;SDS011;2962;51.312;7.378;2023-07-13T14:15:33;3.67;;;1.40;;
5871;SDS011;2962;51.312;7.378;2023-07-13T14:17:59;7.10;;;1.57;;
5871;SDS011;2962;51.312;7.378;2023-07-13T14:20:25;2.90;;;1.23;;
5871;SDS011;2962;51.312;7.378;2023-07-13T14:22:51;4.53;;;1.27;;
5871;SDS011;2962;51.312;7.378;2023-07-13T14:25:17;4.07;;;1.20;;
5871;SDS011;2962;51.312;7.378;2023-07-13T14:27:44;7.10;;;1.80;;
5871;SDS011;2962;51.312;7.378;2023-07-13T14:30:18;1.33;;;1.33;;
5871;SDS011;2962;51.312;7.378;2023-07-13T14:32:45;7.27;;;1.90;;
5871;SDS011;2962;51.312;7.378;2023-07-13T14:35:12;1.23;;;1.23;;
5871;SDS011;2962;51.312;7.378;2023-07-13T14:37:39;3.27;;;1.23;;
5871;SDS011;2962;51.312;7.378;2023-07-13T14:40:16;3.63;;;1.83;;
5871;SDS011;2962;51.312;7.378;2023-07-13T14:42:44;2.17;;;1.50;;
5871;SDS011;2962;51.312;7.378;2023-07-13T14:45:16;6.23;;;1.93;;
5871;SDS011;2962;51.312;7.378;2023-07-13T14:47:44;2.47;;;1.30;;
5871;SDS011;2962;51.312;7.378;2023-07-13T14:50:17;5.27;;;1.80;;
5871;SDS011;2962;51.312;7.378;2023-07-13T14:52:51;2.70;;;1.53;;
5871;SDS011;2962;51.312;7.378;2023-07-13T14:55:17;4.00;;;2.03;;
5871;SDS011;2962;51.312;7.378;2023-07-13T14:57:43;1.60;;;1.60;;
5871;SDS011;2962;51.312;7.378;2023-07-13T15:00:14;2.73;;;1.53;;
5871;SDS011;2962;51.312;7.378;2023-07-13T15:02:42;8.30;;;1.83;;
5871;SDS011;2962;51.312;7.378;2023-07-13T15:05:19;2.30;;;2.10;;
5871;SDS011;2962;51.312;7.378;2023-07-13T15:07:48;4.40;;;1.80;;
5871;SDS011;2962;51.312;7.378;2023-07-13T15:12:44;4.23;;;2.40;;
5871;SDS011;2962;51.312;7.378;2023-07-13T15:15:10;3.20;;;1.60;;
5871;SDS011;2962;51.312;7.378;2023-07-13T15:17:37;4.83;;;2.10;;
5871;SDS011;2962;51.312;7.378;2023-07-13T15:20:06;3.20;;;2.17;;
5871;SDS011;2962;51.312;7.378;2023-07-13T15:22:43;2.87;;;1.73;;
5871;SDS011;2962;51.312;7.378;2023-07-13T15:25:19;3.07;;;2.00;;
5871;SDS011;2962;51.312;7.378;2023-07-13T15:27:46;5.50;;;2.90;;
5871;SDS011;2962;51.312;7.378;2023-07-13T15:30:12;3.43;;;2.17;;
5871;SDS011;2962;51.312;7.378;2023-07-13T15:32:39;2.03;;;2.03;;
5871;SDS011;2962;51.312;7.378;2023-07-13T15:35:05;2.43;;;2.30;;
5871;SDS011;2962;51.312;7.378;2023-07-13T15:37:37;2.83;;;2.40;;
5871;SDS011;2962;51.312;7.378;2023-07-13T15:40:03;3.07;;;2.60;;
5871;SDS011;2962;51.312;7.378;2023-07-13T15:42:28;6.03;;;2.40;;
5871;SDS011;2962;51.312;7.378;2023-07-13T15:44:54;7.10;;;2.60;;
5871;SDS011;2962;51.312;7.378;2023-07-13T15:47:19;6.10;;;3.10;;
5871;SDS011;2962;51.312;7.378;2023-07-13T15:49:45;2.83;;;2.63;;
5871;SDS011;2962;51.312;7.378;2023-07-13T15:52:21;3.13;;;2.80;;
5871;SDS011;2962;51.312;7.378;2023-07-13T15:54:48;8.57;;;2.60;;
5871;SDS011;2962;51.312;7.378;2023-07-13T15:57:14;5.57;;;2.87;;
5871;SDS011;2962;51.312;7.378;2023-07-13T15:59:40;3.93;;;3.00;;
5871;SDS011;2962;51.312;7.378;2023-07-13T16:02:17;3.53;;;3.10;;